Station: ERNABELLA

  Atmospheric Gas Attenuation - ITU Rec 676-11   --------------- db/100km ---------------
Date Time Temp RH % AH g/m3 Dew Point Wind Direction Speed kph Gust kph Barometer mB Rainfall Since 9am 24GHz 47GHz 76GHz 122GHz 134GHz 241GHz
03 08:30 27.1 31 8.02 8.5 19 24 1013.7 0 17.8 21.6 31.9 83.5 76.9 264.8
03 08:20 27.3 32 8.37 9.2 11 13 1013.7 0 18.5 22.0 32.9 86.3 80.5 277.5
03 08:10 26.4 33 8.22 8.8 15 15 1013.7 0 18.2 22.0 32.8 85.9 79.8 274.7
03 08:00 26.1 34 8.32 9 7 13 1013.5 0 18.4 22.2 33.3 87.1 81.2 279.5
03 07:50 25.1 35 8.1 8.6 0 2 1013.6 0 18.0 22.2 32.9 86.2 79.7 274.4
03 07:40 24.9 36 8.24 8.8 0 0 1013.4 0 18.3 22.4 33.5 87.7 81.5 280.5
03 07:30 24.2 38 8.36 9 0 0 1013.2 0 18.6 22.7 34.2 89.5 83.5 287.6
03 07:20 23 41 8.43 9 0 0 1013.1 0 18.8 23.1 34.9 91.5 85.6 294.7
03 07:10 21.8 43 8.25 8.7 0 0 1013 0 18.5 23.2 34.8 91.1 84.7 291.7
03 07:00 21.1 43 7.92 8 0 0 1012.9 0 17.8 22.9 33.9 88.8 81.6 280.6
03 06:50 21 44 8.06 8.3 0 0 1013 0 18.1 23.1 34.4 90.2 83.4 286.7
03 06:40 20.8 44 7.97 8.1 0 0 1012.8 0 17.9 23.0 34.2 89.6 82.5 283.7
03 06:30 20.7 44 7.92 8 7 9 1012.5 0 17.8 23.0 34.0 89.2 82.0 281.9
03 06:20 21 43 7.88 8 9 9 1012.6 0 17.7 22.8 33.8 88.5 81.2 279.2
03 05:10 21.4 42 7.87 8 6 7 1012.4 0 17.7 22.7 33.6 87.9 80.7 277.4
03 06:10 21.4 42 7.87 8 6 7 1012.4 0 17.7 22.7 33.6 87.9 80.7 277.4
03 06:00 22.2 40 7.85 8 9 13 1012.3 0 17.6 22.5 33.2 86.9 79.7 273.9
03 05:50 22.9 38 7.77 7.8 11 13 1012.3 0 17.4 22.2 32.6 85.4 78.1 268.3
03 05:40 23.3 37 7.74 7.8 17 17 1012.2 0 17.3 22.1 32.3 84.7 77.3 265.8
03 05:30 23.7 37 7.91 8.2 17 19 1012 0 17.7 22.2 32.8 85.8 78.8 271.2
03 05:20 23.8 37 7.96 8.2 17 17 1012 0 17.8 22.2 32.9 86.2 79.3 272.8
03 05:00 24.1 36 7.88 8.1 15 20 1011.9 0 17.6 22.1 32.5 85.1 78.1 268.7
03 04:50 23.9 37 8 8.3 15 15 1011.9 0 17.9 22.3 33.0 86.4 79.7 274.1
03 04:40 24.3 36 7.97 8.3 13 15 1011.8 0 17.8 22.1 32.7 85.7 78.9 271.5
03 04:30 24.8 35 7.97 8.3 19 22 1011.6 0 17.8 22.0 32.5 85.2 78.4 269.8
03 04:20 25 34 7.83 8.1 20 24 1011.7 0 17.5 21.8 32.0 83.7 76.7 263.8
03 04:10 25 34 7.83 8.1 17 20 1011.9 0 17.5 21.8 32.0 83.7 76.7 263.8
03 04:00 25.4 33 7.77 8 17 22 1011.9 0 17.3 21.6 31.6 82.8 75.7 260.2
03 03:50 25.5 33 7.81 8.1 13 15 1012.1 0 17.4 21.6 31.7 83.1 76.0 261.5
03 03:40 26.3 32 7.92 8.3 17 20 1012 0 17.6 21.6 31.8 83.2 76.5 263.1
03 03:30 26.2 32 7.88 8.2 19 32 1011.9 0 17.5 21.6 31.7 83.0 76.1 261.9
03 03:20 26.3 32 7.92 8.3 13 15 1012 0 17.6 21.6 31.8 83.2 76.5 263.1
03 03:10 26.6 31 7.8 8.1 24 30 1012 0 17.3 21.4 31.3 81.9 74.9 257.6
03 03:00 26.8 31 7.89 8.3 22 39 1011.9 0 17.5 21.4 31.5 82.5 75.7 260.4
03 02:50 27 31 7.98 8.4 20 26 1012.1 0 17.7 21.5 31.7 83.1 76.5 263.2
03 02:40 27 31 7.98 8.4 26 35 1012.1 0 17.7 21.5 31.7 83.1 76.5 263.2
03 02:30 27.2 30 7.81 8.1 24 33 1012 0 17.3 21.3 31.1 81.4 74.4 256.1
03 02:20 27.5 30 7.94 8.4 30 37 1012 0 17.6 21.4 31.4 82.2 75.6 260.1
03 02:10 27.6 30 7.98 8.5 28 37 1012 0 17.7 21.4 31.5 82.5 75.9 261.3
03 02:00 27.8 30 8.07 8.6 33 48 1011.8 0 17.8 21.5 31.7 83.0 76.7 264.0
03 01:50 27.9 29 7.84 8.2 37 43 1011.9 0 17.4 21.1 30.9 81.0 74.1 255.1
03 01:40 28.1 29 7.93 8.4 33 44 1011.9 0 17.5 21.2 31.1 81.5 74.9 257.8
03 01:30 28.2 29 7.97 8.5 35 50 1011.9 0 17.6 21.2 31.2 81.8 75.2 259.0
03 01:20 28.3 28 7.74 8.1 33 43 1012.1 0 17.1 20.9 30.5 79.7 72.7 250.2
03 01:10 28.5 28 7.83 8.2 32 43 1012.1 0 17.3 21.0 30.7 80.3 73.5 252.9
03 01:00 28.6 28 7.87 8.3 32 46 1012.1 0 17.4 21.0 30.8 80.5 73.8 254.1
03 00:50 28.7 28 7.91 8.4 32 41 1012.2 0 17.5 21.1 30.9 80.8 74.2 255.3
03 00:40 28.9 28 8 8.6 32 39 1012.3 0 17.7 21.1 31.1 81.4 74.9 258.0
03 00:30 29 27 7.76 8.1 32 48 1012.2 0 17.2 20.8 30.3 79.2 72.3 248.9
03 00:20 29.1 27 7.8 8.2 28 35 1012.4 0 17.2 20.8 30.4 79.5 72.7 250.1
03 00:10 29.3 27 7.88 8.4 30 35 1012.4 0 17.4 20.9 30.6 80.0 73.3 252.4
03 00:00 29.4 26 7.63 7.9 28 37 1012.3 0 16.9 20.5 29.7 77.8 70.6 243.0
02 23:50 29.7 26 7.76 8.2 30 35 1012.4 0 17.1 20.6 30.0 78.6 71.7 246.8
02 23:40 29.9 25 7.54 7.7 30 37 1012.4 0 16.7 20.3 29.3 76.6 69.3 238.3
02 23:30 30 25 7.58 7.8 26 39 1012.3 0 16.7 20.3 29.4 76.8 69.6 239.4
02 23:20 30.3 25 7.71 8.1 28 32 1012.3 0 17.0 20.4 29.7 77.6 70.7 243.2
02 23:10 30.6 24 7.52 7.7 37 46 1012.1 0 16.6 20.1 29.0 75.8 68.5 235.5
02 23:00 31.2 23 7.44 7.6 24 44 1011.7 0 16.4 19.9 28.5 74.5 67.2 230.9
02 22:50 32.5 12 4.16 -0.5 20 20 1011.7 0 9.7 15.8 18.8 48.6 35.6 119.8
02 22:40 32.2 12 4.1 -0.8 15 17 1011.5 0 9.5 15.8 18.7 48.4 35.2 118.3
02 22:30 32.2 12 4.1 -0.8 15 17 1011.2 0 9.5 15.8 18.7 48.3 35.1 118.3
02 22:20 32.2 12 4.1 -0.8 13 15 1011.1 0 9.5 15.8 18.7 48.3 35.1 118.3
02 22:10 32.1 12 4.07 -0.9 13 15 1011 0 9.5 15.8 18.7 48.2 34.9 117.5
02 22:00 31.8 12 4.01 -1.1 13 15 1010.8 0 9.4 15.8 18.6 47.9 34.5 116.0
02 21:50 31.8 12 4.01 -1.1 11 13 1010.9 0 9.4 15.8 18.6 47.9 34.5 116.0
02 21:40 31.8 12 4.01 -1.1 11 13 1010.8 0 9.4 15.8 18.6 47.9 34.5 116.0
02 21:30 32.3 12 4.12 -0.7 13 15 1010.6 0 9.6 15.8 18.7 48.4 35.3 118.7
02 21:20 32.3 12 4.12 -0.7 13 13 1010.6 0 9.6 15.8 18.7 48.4 35.3 118.7
02 21:10 32.8 11 3.88 -1.5 13 15 1010.5 0 9.1 15.5 18.0 46.4 33.0 110.7
02 21:00 33.2 11 3.96 -1.2 15 20 1010.2 0 9.2 15.5 18.1 46.8 33.5 112.6
02 20:50 33.3 11 3.98 -1.1 15 17 1010.2 0 9.3 15.5 18.1 46.8 33.6 113.1
02 20:40 33.7 10 3.7 -2.1 17 20 1010.1 0 8.7 15.1 17.3 44.7 31.1 104.1
02 20:30 33.9 10 3.73 -2 17 20 1009.8 0 8.8 15.1 17.4 44.8 31.3 104.8
02 20:20 34.2 10 3.79 -1.7 19 20 1009.7 0 8.9 15.1 17.5 45.0 31.7 106.2
02 20:10 34.5 9 3.47 -2.9 19 22 1009.5 0 8.2 14.8 16.6 42.7 28.9 96.3
02 20:00 34.7 9 3.5 -2.8 20 28 1009.3 0 8.3 14.7 16.6 42.8 29.0 97.0
02 19:50 35 9 3.56 -2.6 20 26 1009.2 0 8.4 14.8 16.7 43.1 29.4 98.4
02 19:40 35.4 9 3.63 -2.3 26 32 1009.1 0 8.5 14.8 16.8 43.3 29.9 100.0
02 19:30 35.7 9 3.69 -2 24 35 1008.8 0 8.6 14.8 16.9 43.6 30.3 101.4
02 19:20 36.3 8 3.38 -3.2 26 28 1008.8 0 8.0 14.4 16.0 41.2 27.5 91.8
02 19:10 36.8 8 3.47 -2.8 20 24 1008.7 0 8.2 14.4 16.1 41.6 28.1 93.8
02 19:00 36.8 8 3.47 -2.8 19 30 1008.5 0 8.2 14.4 16.1 41.6 28.1 93.8
02 18:50 37.1 8 3.53 -2.6 15 17 1008.6 0 8.3 14.4 16.2 41.8 28.5 95.2
02 18:40 37.9 8 3.67 -2 20 26 1008.4 0 8.5 14.4 16.4 42.3 29.3 98.3
02 18:30 38 8 3.69 -1.9 13 28 1008.3 0 8.6 14.4 16.4 42.4 29.5 98.8
02 18:20 38.2 8 3.73 -1.8 15 17 1008.4 0 8.6 14.5 16.5 42.6 29.7 99.7
02 18:10 36.9 8 3.49 -2.7 7 7 1008.4 0 8.2 14.4 16.2 41.6 28.2 94.3
02 18:00 36.9 8 3.49 -2.7 7 11 1008.3 0 8.2 14.4 16.2 41.6 28.2 94.3
02 17:50 36.5 8 3.42 -3 9 9 1008.4 0 8.1 14.4 16.1 41.4 27.8 92.7
02 17:40 36.7 8 3.46 -2.9 15 17 1008.4 0 8.1 14.4 16.1 41.5 28.0 93.6
02 17:30 36.8 8 3.47 -2.8 13 19 1008.3 0 8.2 14.4 16.1 41.5 28.1 93.8
02 17:20 37.1 7 3.09 -4.4 15 19 1008.6 0 7.4 14.0 15.2 39.0 25.0 82.8
02 17:10 37.4 7 3.13 -4.2 11 11 1008.6 0 7.5 14.0 15.2 39.1 25.2 83.6
02 17:00 38.6 7 3.33 -3.3 11 15 1008.4 0 7.8 14.0 15.5 39.8 26.4 88.0
02 16:50 38.2 7 3.26 -3.6 13 13 1008.7 0 7.7 14.0 15.4 39.6 26.0 86.5
02 16:40 37.4 7 3.13 -4.2 11 13 1008.7 0 7.5 14.0 15.2 39.1 25.2 83.6
02 16:30 37.8 7 3.2 -3.9 19 28 1008.6 0 7.6 14.0 15.3 39.4 25.6 85.2
02 16:20 39.1 7 3.42 -2.9 19 24 1008.8 0 8.0 14.0 15.6 40.2 27.0 90.1
02 16:10 37.7 7 3.18 -3.9 11 13 1008.9 0 7.6 14.0 15.3 39.3 25.5 84.8
02 16:00 37.6 7 3.17 -4 7 17 1008.9 0 7.5 14.0 15.3 39.3 25.5 84.6

Last Refresh: 03-Dec-2021 08:43:22

Bureau of Meteorology